createdAt,value
2022-07-30T00:00:48.865Z,23.20
2022-07-30T00:01:48.831Z,23.19
2022-07-30T00:02:48.830Z,23.12
2022-07-30T00:03:48.880Z,23.22
2022-07-30T00:04:48.836Z,23.13
2022-07-30T00:05:48.839Z,23.22
2022-07-30T00:06:48.840Z,23.20
2022-07-30T00:07:48.841Z,23.17
2022-07-30T00:08:48.846Z,23.15
2022-07-30T00:09:48.849Z,23.17
2022-07-30T00:10:48.848Z,23.15
2022-07-30T00:11:48.869Z,23.07
2022-07-30T00:12:48.858Z,23.09
2022-07-30T00:13:48.856Z,23.13
2022-07-30T00:14:48.861Z,23.07
2022-07-30T00:15:48.863Z,23.04
2022-07-30T00:16:48.916Z,22.98
2022-07-30T00:17:49.235Z,23.12
2022-07-30T00:18:48.868Z,23.07
2022-07-30T00:19:48.873Z,23.01
2022-07-30T00:20:48.879Z,23.05
2022-07-30T00:21:48.878Z,23.04
2022-07-30T00:22:48.879Z,23.09
2022-07-30T00:23:51.181Z,23.04
2022-07-30T00:24:48.885Z,23.01
2022-07-30T00:25:48.889Z,22.94
2022-07-30T00:26:48.892Z,23.01
2022-07-30T00:27:48.891Z,22.94
2022-07-30T00:28:48.890Z,22.97
2022-07-30T00:29:48.898Z,22.94
2022-07-30T00:30:48.961Z,22.94
2022-07-30T00:31:48.902Z,22.94
2022-07-30T00:32:48.903Z,22.90
2022-07-30T00:33:48.907Z,22.90
2022-07-30T00:34:48.905Z,22.85
2022-07-30T00:35:48.909Z,22.94
2022-07-30T00:36:48.914Z,22.88
2022-07-30T00:37:48.918Z,22.91
2022-07-30T00:38:48.926Z,22.83
2022-07-30T00:39:48.922Z,22.92
2022-07-30T00:40:48.920Z,22.91
2022-07-30T00:41:48.927Z,22.88
2022-07-30T00:42:48.929Z,22.83
2022-07-30T00:43:48.931Z,22.80
2022-07-30T00:44:48.934Z,22.85
2022-07-30T00:45:48.946Z,22.86
2022-07-30T00:46:48.938Z,22.86
2022-07-30T00:47:48.947Z,22.86
2022-07-30T00:48:48.960Z,22.91
2022-07-30T00:49:48.948Z,22.80
2022-07-30T00:50:48.944Z,22.82
2022-07-30T00:51:48.949Z,22.91
2022-07-30T00:52:48.958Z,22.82
2022-07-30T00:53:48.956Z,22.88
2022-07-30T00:54:48.955Z,22.83
2022-07-30T00:55:48.961Z,22.85
2022-07-30T00:56:48.967Z,22.91
2022-07-30T00:57:48.965Z,22.91
2022-07-30T00:58:48.966Z,22.82
2022-07-30T00:59:48.972Z,22.82
2022-07-30T01:00:49.037Z,22.85
2022-07-30T01:01:49.028Z,22.86
2022-07-30T01:02:48.977Z,22.86
2022-07-30T01:03:48.987Z,22.95
2022-07-30T01:04:48.979Z,22.90
2022-07-30T01:05:48.985Z,22.86
2022-07-30T01:06:48.982Z,22.88
2022-07-30T01:07:48.988Z,22.90
2022-07-30T01:08:48.990Z,22.79
2022-07-30T01:09:48.990Z,22.90
2022-07-30T01:10:48.991Z,22.94
2022-07-30T01:11:48.998Z,22.86
2022-07-30T01:12:49.001Z,22.79
2022-07-30T01:13:48.999Z,22.85
2022-07-30T01:14:49.005Z,22.85
2022-07-30T01:15:49.002Z,22.80
2022-07-30T01:16:49.096Z,22.73
2022-07-30T01:17:49.856Z,22.73
2022-07-30T01:18:49.014Z,22.79
2022-07-30T01:19:49.019Z,22.80
2022-07-30T01:20:49.015Z,22.85
2022-07-30T01:21:49.028Z,22.80
2022-07-30T01:22:49.029Z,22.76
2022-07-30T01:23:49.025Z,22.73
2022-07-30T01:24:49.028Z,22.83
2022-07-30T01:25:49.033Z,22.79
2022-07-30T01:26:49.027Z,22.70
2022-07-30T01:27:49.039Z,22.73
2022-07-30T01:28:49.038Z,22.83
2022-07-30T01:29:49.040Z,22.72
2022-07-30T01:30:50.118Z,22.82
2022-07-30T01:31:49.122Z,22.75
2022-07-30T01:32:49.050Z,22.64
2022-07-30T01:33:49.048Z,22.76
2022-07-30T01:34:49.050Z,22.68
2022-07-30T01:35:49.054Z,22.70
2022-07-30T01:36:49.056Z,22.79
2022-07-30T01:37:49.057Z,22.79
2022-07-30T01:38:49.059Z,22.76
2022-07-30T01:39:49.063Z,22.75
2022-07-30T01:40:49.067Z,22.68
2022-07-30T01:41:49.069Z,22.62
2022-07-30T01:42:49.070Z,22.68
2022-07-30T01:43:49.074Z,22.70
2022-07-30T01:44:49.072Z,22.68
2022-07-30T01:45:49.102Z,22.70
2022-07-30T01:46:49.076Z,22.65
2022-07-30T01:47:49.080Z,22.60
2022-07-30T01:48:49.137Z,22.52
2022-07-30T01:49:49.084Z,22.57
2022-07-30T01:50:49.089Z,22.60
2022-07-30T01:51:49.087Z,22.58
2022-07-30T01:52:49.202Z,22.54
2022-07-30T01:53:49.095Z,22.62
2022-07-30T01:54:49.097Z,22.47
2022-07-30T01:55:49.098Z,22.51
2022-07-30T01:56:49.096Z,22.52
2022-07-30T01:57:49.105Z,22.60
2022-07-30T01:58:49.108Z,22.57
2022-07-30T01:59:49.109Z,22.55
2022-07-30T02:00:49.185Z,22.61
2022-07-30T02:01:49.119Z,22.60
2022-07-30T02:02:49.114Z,22.52
2022-07-30T02:03:49.165Z,22.47
2022-07-30T02:04:49.118Z,22.45
2022-07-30T02:05:49.123Z,22.40
2022-07-30T02:06:49.122Z,22.43
2022-07-30T02:07:49.128Z,22.43
2022-07-30T02:08:49.126Z,22.45
2022-07-30T02:09:49.132Z,22.45
2022-07-30T02:10:49.129Z,22.46
2022-07-30T02:11:49.141Z,22.45
2022-07-30T02:12:49.137Z,22.39
2022-07-30T02:13:49.139Z,22.43
2022-07-30T02:14:49.138Z,22.43
2022-07-30T02:15:49.154Z,22.45
2022-07-30T02:16:49.184Z,22.45
2022-07-30T02:17:49.150Z,22.43
2022-07-30T02:18:49.150Z,22.43
2022-07-30T02:19:49.156Z,22.45
2022-07-30T02:20:49.501Z,22.39
2022-07-30T02:21:50.691Z,22.45
2022-07-30T02:22:49.163Z,22.55
2022-07-30T02:23:49.163Z,22.55
2022-07-30T02:24:49.167Z,22.51
2022-07-30T02:25:49.174Z,22.42
2022-07-30T02:26:49.167Z,22.40
2022-07-30T02:27:49.171Z,22.43
2022-07-30T02:28:49.170Z,22.43
2022-07-30T02:29:49.177Z,22.40
2022-07-30T02:30:49.177Z,22.47
2022-07-30T02:31:49.255Z,22.35
2022-07-30T02:32:49.178Z,22.42
2022-07-30T02:33:49.257Z,22.39
2022-07-30T02:34:49.184Z,22.45
2022-07-30T02:35:49.192Z,22.40
2022-07-30T02:36:49.189Z,22.39
2022-07-30T02:37:49.190Z,22.36
2022-07-30T02:38:49.193Z,22.35
2022-07-30T02:39:49.195Z,22.37
2022-07-30T02:40:49.199Z,22.36
2022-07-30T02:41:49.994Z,22.35
2022-07-30T02:42:49.209Z,22.31
2022-07-30T02:43:49.207Z,22.22
2022-07-30T02:44:49.212Z,22.30
2022-07-30T02:45:49.210Z,22.27
2022-07-30T02:46:49.278Z,22.28
2022-07-30T02:47:49.210Z,22.31
2022-07-30T02:48:49.259Z,22.20
2022-07-30T02:49:49.218Z,22.22
2022-07-30T02:50:49.224Z,22.20
2022-07-30T02:51:49.223Z,22.22
2022-07-30T02:52:49.226Z,22.28
2022-07-30T02:53:51.793Z,22.22
2022-07-30T02:54:49.237Z,22.24
2022-07-30T02:55:49.235Z,22.17
2022-07-30T02:56:49.236Z,22.18
2022-07-30T02:57:49.235Z,22.18
2022-07-30T02:58:49.240Z,22.15
2022-07-30T02:59:49.241Z,22.18
2022-07-30T03:00:49.306Z,22.14
2022-07-30T03:01:49.336Z,22.09
2022-07-30T03:02:49.248Z,22.07
2022-07-30T03:03:49.254Z,22.17
2022-07-30T03:04:49.252Z,22.10
2022-07-30T03:05:49.258Z,22.15
2022-07-30T03:06:49.255Z,22.17
2022-07-30T03:07:49.255Z,22.18
2022-07-30T03:08:49.259Z,22.20
2022-07-30T03:09:52.383Z,22.17
2022-07-30T03:10:49.263Z,22.18
2022-07-30T03:11:49.268Z,22.20
2022-07-30T03:12:49.271Z,22.20
2022-07-30T03:13:49.272Z,22.15
2022-07-30T03:14:49.277Z,22.21
2022-07-30T03:15:49.322Z,22.06
2022-07-30T03:16:49.278Z,22.07
2022-07-30T03:17:49.279Z,22.09
2022-07-30T03:18:49.278Z,22.15
2022-07-30T03:19:49.280Z,22.02
2022-07-30T03:20:49.285Z,22.07
2022-07-30T03:21:49.288Z,22.15
2022-07-30T03:22:49.293Z,22.06
2022-07-30T03:23:49.287Z,22.05
2022-07-30T03:24:49.295Z,22.06
2022-07-30T03:25:49.297Z,22.17
2022-07-30T03:26:49.299Z,22.07
2022-07-30T03:27:49.295Z,22.05
2022-07-30T03:28:49.306Z,22.06
2022-07-30T03:29:49.304Z,22.02
2022-07-30T03:30:49.307Z,22.03
2022-07-30T03:31:49.334Z,22.02
2022-07-30T03:32:49.312Z,22.09
2022-07-30T03:33:49.312Z,22.09
2022-07-30T03:34:49.316Z,22.07
2022-07-30T03:35:49.317Z,22.05
2022-07-30T03:36:49.319Z,22.02
2022-07-30T03:37:49.319Z,21.99
2022-07-30T03:38:49.320Z,21.96
2022-07-30T03:39:49.325Z,21.96
2022-07-30T03:40:49.327Z,21.96
2022-07-30T03:41:49.330Z,21.94
2022-07-30T03:42:49.333Z,21.96
2022-07-30T03:43:49.331Z,21.92
2022-07-30T03:44:49.336Z,21.96
2022-07-30T03:45:49.338Z,21.92
2022-07-30T03:46:49.452Z,21.86
2022-07-30T03:47:49.346Z,21.86
2022-07-30T03:48:49.451Z,21.88
2022-07-30T03:49:49.348Z,21.84
2022-07-30T03:50:49.348Z,21.90
2022-07-30T03:51:49.349Z,21.80
2022-07-30T03:52:49.351Z,21.84
2022-07-30T03:53:49.353Z,21.82
2022-07-30T03:54:49.354Z,21.84
2022-07-30T03:55:49.356Z,21.86
2022-07-30T03:56:49.361Z,21.90
2022-07-30T03:57:49.364Z,21.83
2022-07-30T03:58:49.362Z,21.80
2022-07-30T03:59:49.365Z,21.88
2022-07-30T04:00:49.368Z,21.86
2022-07-30T04:01:49.430Z,21.90
2022-07-30T04:02:49.372Z,21.94
2022-07-30T04:03:49.404Z,21.92
2022-07-30T04:04:49.377Z,21.80
2022-07-30T04:05:49.377Z,21.88
2022-07-30T04:06:49.384Z,21.96
2022-07-30T04:07:49.382Z,21.79
2022-07-30T04:08:49.383Z,21.83
2022-07-30T04:09:49.386Z,21.83
2022-07-30T04:10:49.392Z,21.83
2022-07-30T04:11:49.386Z,21.83
2022-07-30T04:12:49.394Z,21.94
2022-07-30T04:13:49.399Z,21.88
2022-07-30T04:14:49.398Z,21.86
2022-07-30T04:16:37.911Z,21.83
2022-07-30T04:16:40.170Z,21.94
2022-07-30T04:17:34.066Z,21.91
2022-07-30T04:18:33.992Z,21.90
2022-07-30T04:19:33.997Z,21.92
2022-07-30T04:20:33.994Z,21.86
2022-07-30T04:21:33.996Z,21.98
2022-07-30T04:22:34.004Z,22.02
2022-07-30T04:23:33.996Z,21.94
2022-07-30T04:24:34.003Z,21.92
2022-07-30T04:25:34.005Z,21.99
2022-07-30T04:26:34.006Z,21.99
2022-07-30T04:27:34.006Z,22.05
2022-07-30T04:28:34.011Z,22.02
2022-07-30T04:29:34.018Z,22.02
2022-07-30T04:30:34.013Z,22.06
2022-07-30T04:31:34.076Z,22.09
2022-07-30T04:32:34.018Z,22.06
2022-07-30T04:33:34.022Z,22.05
2022-07-30T04:34:34.025Z,22.07
2022-07-30T04:35:51.538Z,22.20
2022-07-30T04:36:34.029Z,22.15
2022-07-30T04:37:34.027Z,22.21
2022-07-30T04:38:34.036Z,22.18
2022-07-30T04:39:34.034Z,22.24
2022-07-30T04:40:34.037Z,22.24
2022-07-30T04:41:48.217Z,22.21
2022-07-30T04:42:34.045Z,22.25
2022-07-30T04:43:34.045Z,22.21
2022-07-30T04:44:34.043Z,22.18
2022-07-30T04:45:34.053Z,22.28
2022-07-30T04:46:34.125Z,22.20
2022-07-30T04:47:34.259Z,22.25
2022-07-30T04:48:34.051Z,22.27
2022-07-30T04:49:34.054Z,22.27
2022-07-30T04:50:34.059Z,22.36
2022-07-30T04:51:34.062Z,22.28
2022-07-30T04:52:34.060Z,22.36
2022-07-30T04:53:34.058Z,22.36
2022-07-30T04:54:34.067Z,22.40
2022-07-30T04:55:34.068Z,22.39
2022-07-30T04:56:34.071Z,22.42
2022-07-30T04:57:34.067Z,22.36
2022-07-30T04:58:34.082Z,22.46
2022-07-30T04:59:34.074Z,22.58
2022-07-30T05:00:37.693Z,22.54
2022-07-30T05:01:40.455Z,22.62
2022-07-30T05:02:34.082Z,22.51
2022-07-30T05:03:34.084Z,22.51
2022-07-30T05:04:34.083Z,22.57
2022-07-30T05:05:34.136Z,22.60
2022-07-30T05:06:34.090Z,22.61
2022-07-30T05:07:34.092Z,22.57
2022-07-30T05:08:34.100Z,22.55
2022-07-30T05:09:34.095Z,22.60
2022-07-30T05:10:34.101Z,22.60
2022-07-30T05:11:34.101Z,22.64
2022-07-30T05:12:34.104Z,22.67
2022-07-30T05:13:38.412Z,22.73
2022-07-30T05:14:34.110Z,22.77
2022-07-30T05:15:37.411Z,22.82
2022-07-30T05:16:34.125Z,22.76
2022-07-30T05:17:34.117Z,22.80
2022-07-30T05:18:34.120Z,22.83
2022-07-30T05:19:34.117Z,22.85
2022-07-30T05:20:34.126Z,22.88
2022-07-30T05:21:34.127Z,22.90
2022-07-30T05:22:34.129Z,22.90
2022-07-30T05:23:34.125Z,22.94
2022-07-30T05:24:34.129Z,22.98
2022-07-30T05:25:34.133Z,22.97
2022-07-30T05:26:34.137Z,23.01
2022-07-30T05:27:34.134Z,23.02
2022-07-30T05:28:34.145Z,23.07
2022-07-30T05:29:34.150Z,23.09
2022-07-30T05:30:34.146Z,23.01
2022-07-30T05:31:34.209Z,23.15
2022-07-30T05:32:34.150Z,23.15
2022-07-30T05:33:38.820Z,23.09
2022-07-30T05:34:34.154Z,23.09
2022-07-30T05:35:34.154Z,23.13
2022-07-30T05:36:34.157Z,23.19
2022-07-30T05:37:34.157Z,23.23
2022-07-30T05:38:34.167Z,23.22
2022-07-30T05:39:34.166Z,23.10
2022-07-30T05:40:34.166Z,23.27
2022-07-30T05:41:34.169Z,23.19
2022-07-30T05:42:34.180Z,23.20
2022-07-30T05:43:34.176Z,23.32
2022-07-30T05:44:34.179Z,23.32
2022-07-30T05:48:00.045Z,23.33
2022-07-30T05:49:00.118Z,23.47
2022-07-30T05:50:04.367Z,23.43
2022-07-30T05:51:00.041Z,23.39
2022-07-30T05:52:00.048Z,23.46
2022-07-30T05:53:00.063Z,23.55
2022-07-30T05:54:00.053Z,23.53
2022-07-30T05:55:00.070Z,23.54
2022-07-30T05:56:00.065Z,23.51
2022-07-30T05:57:00.257Z,23.55
2022-07-30T05:58:00.071Z,23.58
2022-07-30T05:59:00.073Z,23.63
2022-07-30T06:00:00.086Z,23.65
2022-07-30T06:01:00.069Z,23.66
2022-07-30T06:02:00.155Z,23.61
2022-07-30T06:03:00.071Z,23.65
2022-07-30T06:04:00.215Z,23.66
2022-07-30T06:05:00.217Z,23.72
2022-07-30T06:06:00.087Z,23.73
2022-07-30T06:07:00.324Z,23.75
2022-07-30T06:08:00.087Z,23.85
2022-07-30T06:09:00.087Z,23.78
2022-07-30T06:10:00.218Z,23.83
2022-07-30T06:11:00.094Z,23.83
2022-07-30T06:12:00.115Z,23.83
2022-07-30T06:13:00.099Z,23.98
2022-07-30T06:14:00.100Z,24.00
2022-07-30T06:15:00.110Z,24.00
2022-07-30T06:16:00.204Z,24.06
2022-07-30T06:17:00.418Z,24.09
2022-07-30T06:18:01.890Z,24.15
2022-07-30T06:19:00.111Z,24.12
2022-07-30T06:20:00.166Z,24.24
2022-07-30T06:21:00.118Z,24.24
2022-07-30T06:22:05.460Z,24.27
2022-07-30T06:23:00.124Z,24.30
2022-07-30T06:24:00.131Z,24.39
2022-07-30T06:25:00.131Z,24.31
2022-07-30T06:26:00.136Z,24.30
2022-07-30T06:27:00.381Z,24.40
2022-07-30T06:28:10.693Z,24.40
2022-07-30T06:29:00.136Z,24.42
2022-07-30T06:30:00.171Z,24.45
2022-07-30T06:31:00.292Z,24.52
2022-07-30T06:32:00.157Z,24.52
2022-07-30T06:33:00.158Z,24.58
2022-07-30T06:34:00.156Z,24.60
2022-07-30T06:35:04.539Z,24.67
2022-07-30T06:36:00.161Z,24.61
2022-07-30T06:37:00.312Z,24.64
2022-07-30T06:38:06.760Z,24.61
2022-07-30T06:39:00.171Z,24.61
2022-07-30T06:40:00.171Z,24.73
2022-07-30T06:41:02.657Z,24.81
2022-07-30T06:42:00.187Z,24.81
2022-07-30T06:43:00.193Z,24.93
2022-07-30T06:44:00.191Z,24.87
2022-07-30T06:45:00.188Z,25.00
2022-07-30T06:46:00.308Z,24.99
2022-07-30T06:47:05.266Z,25.08
2022-07-30T06:48:00.195Z,25.06
2022-07-30T06:49:00.273Z,25.08
2022-07-30T06:50:00.213Z,25.23
2022-07-30T06:51:00.207Z,25.14
2022-07-30T06:52:00.212Z,25.25
2022-07-30T06:53:00.206Z,25.25
2022-07-30T06:54:00.213Z,25.23
2022-07-30T06:55:00.246Z,25.25
2022-07-30T06:56:00.685Z,25.25
2022-07-30T06:57:00.566Z,25.38
2022-07-30T06:58:00.227Z,25.43
2022-07-30T06:59:00.229Z,25.45
2022-07-30T07:00:00.244Z,25.58
2022-07-30T07:01:00.289Z,25.57
2022-07-30T07:02:00.241Z,25.62
2022-07-30T07:03:00.248Z,25.62
2022-07-30T07:04:00.323Z,25.70
2022-07-30T07:05:00.251Z,25.72
2022-07-30T07:06:00.258Z,25.73
2022-07-30T07:07:00.473Z,25.82
2022-07-30T07:08:00.260Z,25.88
2022-07-30T07:09:00.264Z,25.91
2022-07-30T07:10:00.268Z,25.90
2022-07-30T07:11:00.271Z,25.92
2022-07-30T07:12:00.276Z,25.98
2022-07-30T07:13:00.274Z,25.95
2022-07-30T07:14:04.338Z,25.94
2022-07-30T07:15:00.282Z,25.99
2022-07-30T07:16:00.288Z,25.94
2022-07-30T07:17:00.853Z,25.98
2022-07-30T07:18:00.590Z,25.99
2022-07-30T07:19:00.299Z,25.98
2022-07-30T07:20:02.625Z,26.07
2022-07-30T07:21:00.306Z,26.09
2022-07-30T07:22:00.314Z,26.15
2022-07-30T07:23:01.624Z,26.28
2022-07-30T07:24:00.317Z,26.28
2022-07-30T07:25:00.317Z,26.30
2022-07-30T07:26:00.327Z,26.36
2022-07-30T07:27:00.553Z,26.40
2022-07-30T07:28:11.700Z,26.35
2022-07-30T07:29:04.989Z,26.50
2022-07-30T07:30:01.455Z,26.43
2022-07-30T07:31:00.403Z,26.63
2022-07-30T07:32:06.919Z,26.50
2022-07-30T07:33:00.351Z,26.50
2022-07-30T07:34:00.359Z,26.54
2022-07-30T07:35:00.367Z,26.57
2022-07-30T07:36:00.363Z,26.58
2022-07-30T07:37:00.626Z,26.73
2022-07-30T07:38:00.371Z,26.67
2022-07-30T07:39:00.377Z,26.81
2022-07-30T07:40:00.383Z,26.76
2022-07-30T07:41:00.390Z,26.89
2022-07-30T07:42:00.389Z,27.00
2022-07-30T07:43:00.397Z,27.10
2022-07-30T07:44:00.405Z,27.14
2022-07-30T07:45:00.397Z,27.12
2022-07-30T07:46:00.451Z,27.24
2022-07-30T07:47:00.795Z,27.29
2022-07-30T07:48:00.412Z,27.28
2022-07-30T07:49:00.449Z,27.37
2022-07-30T07:50:00.423Z,27.37
2022-07-30T07:51:00.922Z,27.43
2022-07-30T07:52:00.434Z,27.37
2022-07-30T07:53:00.437Z,27.49
2022-07-30T07:54:20.535Z,27.54
2022-07-30T07:55:00.443Z,27.51
2022-07-30T07:56:00.452Z,27.60
2022-07-30T07:57:02.463Z,27.67
2022-07-30T07:58:00.466Z,27.70
2022-07-30T07:59:00.464Z,27.88
2022-07-30T08:00:00.468Z,28.00
2022-07-30T08:01:00.510Z,28.04
2022-07-30T08:02:00.503Z,28.19
2022-07-30T08:03:00.483Z,28.30
2022-07-30T08:04:00.486Z,28.48
2022-07-30T08:05:00.491Z,28.62
2022-07-30T08:06:06.010Z,28.73
2022-07-30T08:07:00.756Z,28.74
2022-07-30T08:08:00.512Z,28.83
2022-07-30T08:09:00.514Z,28.90
2022-07-30T08:10:00.526Z,29.05
2022-07-30T08:11:00.523Z,29.00
2022-07-30T08:12:00.531Z,29.11
2022-07-30T08:13:00.538Z,29.11
2022-07-30T08:14:00.543Z,29.15
2022-07-30T08:15:00.559Z,29.34
2022-07-30T08:16:00.553Z,29.48
2022-07-30T08:17:01.106Z,29.53
2022-07-30T08:18:00.567Z,29.63
2022-07-30T08:19:00.573Z,29.67
2022-07-30T08:20:00.579Z,29.86
2022-07-30T08:21:00.580Z,29.97
2022-07-30T08:22:00.587Z,30.15
2022-07-30T08:23:00.594Z,30.35
2022-07-30T08:24:00.600Z,30.55
2022-07-30T08:25:00.611Z,30.70
2022-07-30T08:26:00.615Z,30.98
2022-07-30T08:27:01.028Z,31.19
2022-07-30T08:28:00.633Z,31.26
2022-07-30T08:29:00.635Z,31.34
2022-07-30T08:30:00.643Z,31.36
2022-07-30T08:31:02.504Z,31.39
2022-07-30T08:32:01.010Z,31.48
2022-07-30T08:33:00.663Z,31.56
2022-07-30T08:34:00.686Z,31.72
2022-07-30T08:35:00.681Z,31.81
2022-07-30T08:36:04.277Z,32.00
2022-07-30T08:37:00.693Z,32.15
2022-07-30T08:38:00.704Z,32.30
2022-07-30T08:39:00.717Z,32.33
2022-07-30T08:40:00.717Z,32.62
2022-07-30T08:41:00.727Z,32.65
2022-07-30T08:42:01.182Z,32.78
2022-07-30T08:43:00.746Z,32.65
2022-07-30T08:44:00.752Z,32.67
2022-07-30T08:45:00.762Z,32.62
2022-07-30T08:46:00.773Z,32.52
2022-07-30T08:47:01.084Z,32.48
2022-07-30T08:48:00.790Z,32.37
2022-07-30T08:49:05.399Z,32.15
2022-07-30T08:50:00.805Z,32.15
2022-07-30T08:51:00.812Z,32.11
2022-07-30T08:52:01.168Z,32.04
2022-07-30T08:53:00.831Z,32.18
2022-07-30T08:54:00.841Z,32.15
2022-07-30T08:55:00.851Z,32.18
2022-07-30T08:56:00.859Z,32.32
2022-07-30T08:57:00.869Z,32.29
2022-07-30T08:58:00.962Z,32.26
2022-07-30T08:59:00.889Z,32.29
2022-07-30T09:00:01.879Z,32.32
2022-07-30T09:01:00.914Z,32.33
2022-07-30T09:02:01.232Z,32.44
2022-07-30T09:03:01.020Z,32.48
2022-07-30T09:04:00.978Z,32.75
2022-07-30T09:05:00.946Z,32.77
2022-07-30T09:06:00.957Z,33.12
2022-07-30T09:07:01.268Z,33.18
2022-07-30T09:08:01.875Z,33.38
2022-07-30T09:09:00.991Z,33.45
2022-07-30T09:10:00.996Z,33.63
2022-07-30T09:11:01.004Z,33.84
2022-07-30T09:12:01.020Z,33.86
2022-07-30T09:13:01.027Z,33.88
2022-07-30T09:14:02.362Z,33.86
2022-07-30T09:15:01.044Z,33.91
2022-07-30T09:16:01.059Z,34.02
2022-07-30T09:17:01.388Z,33.93
2022-07-30T09:18:01.080Z,33.72
2022-07-30T09:19:01.101Z,33.69
2022-07-30T09:20:01.105Z,33.63
2022-07-30T09:21:01.116Z,33.65
2022-07-30T09:22:01.125Z,33.59
2022-07-30T09:23:01.142Z,33.50
2022-07-30T09:24:01.150Z,33.60
2022-07-30T09:25:01.161Z,33.56
2022-07-30T09:26:01.172Z,33.73
2022-07-30T09:27:01.563Z,33.61
2022-07-30T09:28:01.194Z,33.57
2022-07-30T09:29:01.205Z,33.65
2022-07-30T09:30:01.221Z,33.82
2022-07-30T09:31:01.229Z,34.08
2022-07-30T09:32:01.740Z,34.21
2022-07-30T09:33:01.254Z,34.34
2022-07-30T09:34:01.265Z,34.59
2022-07-30T09:35:01.274Z,34.87
2022-07-30T09:36:01.290Z,35.25
2022-07-30T09:37:01.297Z,35.59
2022-07-30T09:38:06.000Z,35.84
2022-07-30T09:39:01.328Z,35.84
2022-07-30T09:40:01.338Z,36.00
2022-07-30T09:41:08.133Z,35.90
2022-07-30T09:42:01.656Z,35.96
2022-07-30T09:43:01.375Z,35.96
2022-07-30T09:44:01.393Z,36.13
2022-07-30T09:45:01.418Z,36.19
2022-07-30T09:46:01.419Z,36.32
2022-07-30T09:47:01.430Z,36.37
2022-07-30T09:48:01.449Z,36.31
2022-07-30T09:49:01.516Z,36.29
2022-07-30T09:50:07.074Z,36.23
2022-07-30T09:51:01.488Z,36.08
2022-07-30T09:52:01.649Z,35.92
2022-07-30T09:53:01.509Z,35.92
2022-07-30T09:54:01.571Z,35.77
2022-07-30T09:55:01.544Z,35.44
2022-07-30T09:56:01.554Z,35.31
2022-07-30T09:57:01.977Z,35.25
2022-07-30T09:58:01.682Z,35.04
2022-07-30T09:59:01.597Z,34.97
2022-07-30T10:00:01.767Z,34.91
2022-07-30T10:01:01.625Z,34.61
2022-07-30T10:02:04.074Z,34.52
2022-07-30T10:03:12.642Z,34.30
2022-07-30T10:04:01.663Z,34.16
2022-07-30T10:05:01.677Z,34.06
2022-07-30T10:06:03.006Z,33.91
2022-07-30T10:07:01.708Z,33.76
2022-07-30T10:08:06.651Z,33.60
2022-07-30T10:09:01.731Z,33.54
2022-07-30T10:10:01.746Z,33.50
2022-07-30T10:11:08.585Z,33.37
2022-07-30T10:12:02.474Z,33.16
2022-07-30T10:13:04.261Z,33.18
2022-07-30T10:14:01.797Z,33.07
2022-07-30T10:15:01.818Z,33.04
2022-07-30T10:16:01.825Z,33.03
2022-07-30T10:17:02.871Z,32.99
2022-07-30T10:18:01.852Z,32.93
2022-07-30T10:19:01.868Z,32.89
2022-07-30T10:20:02.896Z,32.81
2022-07-30T10:21:01.891Z,32.67
2022-07-30T10:22:02.197Z,32.65
2022-07-30T10:23:08.283Z,32.59
2022-07-30T10:24:01.927Z,32.52
2022-07-30T10:25:01.938Z,32.56
2022-07-30T10:26:03.707Z,32.52
2022-07-30T10:27:02.401Z,32.56
2022-07-30T10:28:03.142Z,32.59
2022-07-30T10:29:02.052Z,32.65
2022-07-30T10:30:03.475Z,32.70
2022-07-30T10:31:02.010Z,32.77
2022-07-30T10:32:02.023Z,32.82
2022-07-30T10:33:02.039Z,32.82
2022-07-30T10:34:02.050Z,32.81
2022-07-30T10:35:02.062Z,32.78
2022-07-30T10:36:02.708Z,32.79
2022-07-30T10:37:04.549Z,32.92
2022-07-30T10:38:02.092Z,32.87
2022-07-30T10:39:02.107Z,33.03
2022-07-30T10:40:02.964Z,33.07
2022-07-30T10:41:02.134Z,33.07
2022-07-30T10:42:02.138Z,33.12
2022-07-30T10:43:02.154Z,33.19
2022-07-30T10:44:02.164Z,33.26
2022-07-30T10:45:02.177Z,33.26
2022-07-30T10:46:02.814Z,33.28
2022-07-30T10:47:07.015Z,33.26
2022-07-30T10:48:02.211Z,33.18
2022-07-30T10:49:02.271Z,33.23
2022-07-30T10:50:02.232Z,33.18
2022-07-30T10:51:02.250Z,33.15
2022-07-30T10:52:02.263Z,33.14
2022-07-30T10:53:02.269Z,33.18
2022-07-30T10:54:02.288Z,33.15
2022-07-30T10:55:02.293Z,33.14
2022-07-30T10:56:02.304Z,33.22
2022-07-30T10:57:02.680Z,33.26
2022-07-30T10:58:02.327Z,33.41
2022-07-30T10:59:02.852Z,33.38
2022-07-30T11:00:04.088Z,33.51
2022-07-30T11:01:02.364Z,33.53
2022-07-30T11:02:02.919Z,33.63
2022-07-30T11:03:02.385Z,33.63
2022-07-30T11:04:02.398Z,33.59
2022-07-30T11:05:02.409Z,33.60
2022-07-30T11:06:02.419Z,33.45
2022-07-30T11:07:02.429Z,33.54
2022-07-30T11:08:02.447Z,33.57
2022-07-30T11:09:02.457Z,33.47
2022-07-30T11:10:09.022Z,33.41
2022-07-30T11:11:16.205Z,33.44
2022-07-30T11:12:06.483Z,33.57
2022-07-30T11:13:02.499Z,33.63
2022-07-30T11:14:02.512Z,33.57
2022-07-30T11:15:06.856Z,33.44
2022-07-30T11:16:02.541Z,33.38
2022-07-30T11:17:02.546Z,33.28
2022-07-30T11:18:02.559Z,33.15
2022-07-30T11:19:27.441Z,33.18
2022-07-30T11:20:02.584Z,33.07
2022-07-30T11:21:02.595Z,33.09
2022-07-30T11:22:03.054Z,33.12
2022-07-30T11:23:02.617Z,33.06
2022-07-30T11:24:02.627Z,33.00
2022-07-30T11:25:12.488Z,32.99
2022-07-30T11:26:02.650Z,32.87
2022-07-30T11:27:02.682Z,32.92
2022-07-30T11:28:02.675Z,32.92
2022-07-30T11:29:02.684Z,32.88
2022-07-30T11:30:02.697Z,32.87
2022-07-30T11:31:09.923Z,32.74
2022-07-30T11:32:06.782Z,32.70
2022-07-30T11:33:02.738Z,32.70
2022-07-30T11:34:02.745Z,32.67
2022-07-30T11:35:02.754Z,32.57
2022-07-30T11:36:02.768Z,32.62
2022-07-30T11:37:02.779Z,32.60
2022-07-30T11:38:02.790Z,32.77
2022-07-30T11:39:06.857Z,32.79
2022-07-30T11:40:02.814Z,32.79
2022-07-30T11:41:02.825Z,32.81
2022-07-30T11:42:03.411Z,32.69
2022-07-30T11:43:02.848Z,32.70
2022-07-30T11:44:02.855Z,32.70
2022-07-30T11:45:04.202Z,32.72
2022-07-30T11:46:02.881Z,32.69
2022-07-30T11:47:02.888Z,32.65
2022-07-30T11:48:02.903Z,32.59
2022-07-30T11:49:03.054Z,32.72
2022-07-30T11:50:02.922Z,32.57
2022-07-30T11:51:04.100Z,32.72
2022-07-30T11:52:03.367Z,32.60
2022-07-30T11:53:02.967Z,32.67
2022-07-30T11:54:02.964Z,32.75
2022-07-30T11:55:02.975Z,32.81
2022-07-30T11:56:02.992Z,32.87
2022-07-30T11:57:04.748Z,32.93
2022-07-30T11:58:03.013Z,32.99
2022-07-30T11:59:03.029Z,33.07
2022-07-30T12:00:03.037Z,33.23
2022-07-30T12:01:03.043Z,33.38
2022-07-30T12:02:03.381Z,33.54
2022-07-30T12:03:04.311Z,33.54
2022-07-30T12:04:03.075Z,33.56
2022-07-30T12:05:03.091Z,33.72
2022-07-30T12:06:03.101Z,33.72
2022-07-30T12:07:03.456Z,33.59
2022-07-30T12:08:03.125Z,33.72
2022-07-30T12:09:03.133Z,33.93
2022-07-30T12:10:03.144Z,33.94
2022-07-30T12:11:03.157Z,34.19
2022-07-30T12:12:03.166Z,34.52
2022-07-30T12:13:03.183Z,34.96
2022-07-30T12:14:03.194Z,35.22
2022-07-30T12:15:03.209Z,35.31
2022-07-30T12:16:03.214Z,35.16
2022-07-30T12:17:03.671Z,35.31
2022-07-30T12:18:25.376Z,35.29
2022-07-30T12:19:03.249Z,35.22
2022-07-30T12:20:03.259Z,35.02
2022-07-30T12:21:03.277Z,34.92
2022-07-30T12:22:03.284Z,34.72
2022-07-30T12:23:03.297Z,34.49
2022-07-30T12:24:03.317Z,34.34
2022-07-30T12:25:03.322Z,34.22
2022-07-30T12:26:03.335Z,33.93
2022-07-30T12:27:03.961Z,33.94
2022-07-30T12:28:03.358Z,33.86
2022-07-30T12:29:03.375Z,33.73
2022-07-30T12:30:03.385Z,33.57
2022-07-30T12:31:03.397Z,33.63
2022-07-30T12:32:03.408Z,33.60
2022-07-30T12:33:03.423Z,33.72
2022-07-30T12:34:03.432Z,33.82
2022-07-30T12:35:03.444Z,33.66
2022-07-30T12:36:03.459Z,33.69
2022-07-30T12:37:03.938Z,33.59
2022-07-30T12:38:03.480Z,33.51
2022-07-30T12:39:03.493Z,33.49
2022-07-30T12:40:03.498Z,33.34
2022-07-30T12:41:03.518Z,33.26
2022-07-30T12:42:03.530Z,33.19
2022-07-30T12:43:03.545Z,33.01
2022-07-30T12:44:03.561Z,32.97
2022-07-30T12:45:03.560Z,32.81
2022-07-30T12:46:03.574Z,32.82
2022-07-30T12:47:04.695Z,32.62
2022-07-30T12:48:03.592Z,32.55
2022-07-30T12:49:08.907Z,32.45
2022-07-30T12:50:03.666Z,32.33
2022-07-30T12:51:03.635Z,32.30
2022-07-30T12:52:03.648Z,32.28
2022-07-30T12:53:03.664Z,32.23
2022-07-30T12:54:03.664Z,32.29
2022-07-30T12:55:03.676Z,32.28